Time;durP1;ratioP1;P1;durP2;ratioP2;P2;SDS_P1;SDS_P2;PMS_P1;PMS_P2;Temp;Humidity;BMP_temperature;BMP_pressure;BME280_temperature;BME280_humidity;BME280_pressure;Samples;Min_cycle;Max_cycle;Signal;HPM_P1;HPM_P2
2024/01/27 00:02:24;;;;;;;32.35;13.25;;;4.40;99.90;;;;;;5000655;28;20049;-76
2024/01/27 00:04:50;;;;;;;31.00;10.70;;;4.40;99.90;;;;;;4984059;28;20046;-76
2024/01/27 00:07:17;;;;;;;34.30;11.52;;;4.30;99.90;;;;;;4987969;28;21035;-77
2024/01/27 00:09:44;;;;;;;27.02;10.68;;;4.40;99.90;;;;;;4988305;28;20054;-76
2024/01/27 00:12:11;;;;;;;31.98;12.23;;;4.30;99.90;;;;;;4971144;28;20109;-77
2024/01/27 00:14:39;;;;;;;37.13;11.88;;;4.30;99.90;;;;;;4984176;28;20069;-76
2024/01/27 00:17:05;;;;;;;29.95;11.07;;;4.30;99.90;;;;;;4990794;28;20088;-77
2024/01/27 00:19:32;;;;;;;31.20;10.63;;;4.30;99.90;;;;;;4997892;28;20050;-77
2024/01/27 00:22:02;;;;;;;43.85;11.70;;;4.40;99.90;;;;;;5007831;28;20045;-78
2024/01/27 00:24:29;;;;;;;39.97;12.18;;;4.40;99.90;;;;;;4982699;28;20049;-76
2024/01/27 00:26:55;;;;;;;33.20;11.55;;;4.40;99.90;;;;;;4989568;28;20141;-77
2024/01/27 00:29:22;;;;;;;31.17;12.02;;;4.30;99.90;;;;;;4971400;28;20301;-76
2024/01/27 00:31:50;;;;;;;36.55;12.13;;;4.40;99.90;;;;;;4990272;28;20206;-77
2024/01/27 00:34:17;;;;;;;37.50;12.18;;;4.30;99.90;;;;;;4987999;28;20057;-77
2024/01/27 00:36:48;;;;;;;48.35;11.98;;;4.30;99.90;;;;;;4988236;28;20132;-77
2024/01/27 00:39:15;;;;;;;37.42;10.68;;;4.30;99.90;;;;;;4992476;28;20675;-77
2024/01/27 00:41:43;;;;;;;32.40;10.20;;;4.20;99.90;;;;;;4987171;28;20880;-76
2024/01/27 00:44:10;;;;;;;29.67;10.82;;;4.20;99.90;;;;;;4986451;28;20194;-77
2024/01/27 00:46:37;;;;;;;33.67;9.45;;;4.20;99.90;;;;;;4984965;28;20050;-77
2024/01/27 00:49:04;;;;;;;33.90;10.82;;;4.20;99.90;;;;;;4988871;28;20038;-77
2024/01/27 00:51:34;;;;;;;25.13;9.90;;;4.20;99.90;;;;;;4991322;28;20753;-77
2024/01/27 00:54:01;;;;;;;26.48;9.35;;;4.10;99.90;;;;;;4989948;28;20038;-76
2024/01/27 00:56:30;;;;;;;35.10;10.20;;;4.10;99.90;;;;;;4990335;28;20649;-76
2024/01/27 00:58:57;;;;;;;25.55;10.27;;;4.10;99.90;;;;;;4983302;28;20095;-77
2024/01/27 01:01:24;;;;;;;35.45;10.10;;;4.10;99.90;;;;;;4988677;28;20600;-76
2024/01/27 01:03:51;;;;;;;30.17;11.27;;;4.10;99.90;;;;;;4991200;28;20049;-77
2024/01/27 01:06:18;;;;;;;37.83;11.23;;;4.10;99.90;;;;;;4967722;28;20073;-76
2024/01/27 01:08:45;;;;;;;29.40;9.35;;;4.10;99.90;;;;;;4988955;28;20049;-77
2024/01/27 01:11:12;;;;;;;41.00;13.10;;;4.10;99.90;;;;;;4985102;28;20624;-77
2024/01/27 01:13:38;;;;;;;35.47;10.55;;;4.10;99.90;;;;;;4987469;28;20092;-76
2024/01/27 01:16:07;;;;;;;30.63;9.93;;;4.10;99.90;;;;;;4997459;28;20049;-76
2024/01/27 01:18:34;;;;;;;33.03;10.90;;;4.10;99.90;;;;;;5007675;28;20041;-77
2024/01/27 01:21:01;;;;;;;31.77;11.40;;;4.10;99.90;;;;;;5010299;28;20687;-76
2024/01/27 01:23:28;;;;;;;28.30;11.32;;;4.00;99.90;;;;;;4990737;28;20120;-76
2024/01/27 01:25:55;;;;;;;33.25;10.13;;;4.00;99.90;;;;;;5001565;28;20061;-77
2024/01/27 01:28:21;;;;;;;40.63;11.55;;;4.00;99.90;;;;;;5010707;28;20441;-77
2024/01/27 01:30:49;;;;;;;34.28;11.27;;;4.00;99.90;;;;;;5006049;28;20485;-76
2024/01/27 01:33:16;;;;;;;34.15;10.70;;;4.00;99.90;;;;;;4993363;28;20045;-77
2024/01/27 01:35:44;;;;;;;30.65;10.40;;;3.90;99.90;;;;;;4993371;28;20069;-76
2024/01/27 01:38:10;;;;;;;28.13;10.73;;;3.90;99.90;;;;;;5009094;28;20099;-77
2024/01/27 01:40:37;;;;;;;29.23;11.43;;;3.90;99.90;;;;;;4989758;28;20053;-76
2024/01/27 01:43:11;;;;;;;38.42;12.90;;;3.90;99.90;;;;;;5008003;28;20049;-76
2024/01/27 01:45:40;;;;;;;30.33;12.85;;;3.90;99.90;;;;;;5004270;28;20037;-77
2024/01/27 01:48:08;;;;;;;47.42;13.05;;;3.90;99.90;;;;;;5009289;28;20052;-76
2024/01/27 01:50:38;;;;;;;35.45;11.57;;;3.80;99.90;;;;;;4993860;28;20038;-76
2024/01/27 01:53:06;;;;;;;40.90;13.35;;;3.80;99.90;;;;;;5009082;28;20505;-77
2024/01/27 01:55:32;;;;;;;33.35;13.07;;;3.80;99.90;;;;;;5009571;28;20037;-77
2024/01/27 01:57:59;;;;;;;33.28;13.68;;;3.80;99.90;;;;;;4973651;28;20842;-76
2024/01/27 02:00:26;;;;;;;33.22;13.57;;;3.80;99.90;;;;;;4975739;28;20056;-77
2024/01/27 02:02:53;;;;;;;50.72;12.65;;;3.70;99.90;;;;;;4957904;28;20538;-77
2024/01/27 02:05:20;;;;;;;44.35;14.60;;;3.70;99.90;;;;;;4990798;28;20648;-76
2024/01/27 02:07:47;;;;;;;36.72;14.50;;;3.60;99.90;;;;;;4974062;28;20050;-76
2024/01/27 02:10:18;;;;;;;38.13;15.55;;;3.60;99.90;;;;;;4991567;28;20070;-76
2024/01/27 02:12:45;;;;;;;48.42;15.50;;;3.50;99.90;;;;;;4987684;28;20046;-76
2024/01/27 02:15:13;;;;;;;51.30;16.17;;;3.50;99.90;;;;;;4953150;28;20092;-77
2024/01/27 02:17:41;;;;;;;37.90;16.40;;;3.40;99.90;;;;;;4988634;28;20057;-77
2024/01/27 02:20:10;;;;;;;34.10;15.63;;;3.40;99.90;;;;;;4954896;28;20124;-78
2024/01/27 02:22:37;;;;;;;41.55;15.18;;;3.40;99.90;;;;;;4973350;28;20049;-77
2024/01/27 02:25:05;;;;;;;37.13;15.10;;;3.30;99.90;;;;;;4989553;28;20103;-77
2024/01/27 02:27:32;;;;;;;35.42;16.17;;;3.30;99.90;;;;;;4972746;28;20057;-78
2024/01/27 02:29:58;;;;;;;33.65;16.10;;;3.20;99.90;;;;;;4988627;28;20555;-78
2024/01/27 02:32:26;;;;;;;46.20;18.48;;;3.30;99.90;;;;;;4950870;28;20046;-78
2024/01/27 02:34:53;;;;;;;44.20;16.67;;;3.30;99.90;;;;;;4988373;28;20049;-77
2024/01/27 02:37:20;;;;;;;40.78;18.35;;;3.30;99.90;;;;;;4991928;28;20045;-77
2024/01/27 02:39:46;;;;;;;45.15;17.70;;;3.30;99.90;;;;;;4972500;28;20104;-77
2024/01/27 02:42:13;;;;;;;42.35;17.48;;;3.30;99.90;;;;;;4980643;28;20053;-77
2024/01/27 02:44:40;;;;;;;49.88;19.85;;;3.30;99.90;;;;;;4984124;28;20062;-77
2024/01/27 02:47:07;;;;;;;44.40;18.58;;;3.30;99.90;;;;;;4967933;28;20546;-77
2024/01/27 02:49:34;;;;;;;45.40;19.67;;;3.30;99.90;;;;;;4992009;28;20054;-77
2024/01/27 02:52:01;;;;;;;44.80;19.05;;;3.30;99.90;;;;;;4969315;28;20104;-77
2024/01/27 02:54:27;;;;;;;60.95;22.00;;;3.30;99.90;;;;;;4972628;28;20132;-77
2024/01/27 02:56:54;;;;;;;41.38;19.42;;;3.30;99.90;;;;;;4965393;28;20666;-77
2024/01/27 02:59:21;;;;;;;56.50;20.70;;;3.30;99.90;;;;;;4991771;28;20041;-77
2024/01/27 03:01:48;;;;;;;48.97;19.60;;;3.20;99.90;;;;;;4985216;28;20042;-77
2024/01/27 03:04:15;;;;;;;40.90;20.08;;;3.20;99.90;;;;;;4973717;28;20100;-77
2024/01/27 03:06:42;;;;;;;37.15;20.05;;;3.10;99.90;;;;;;4990553;28;20046;-77
2024/01/27 03:09:10;;;;;;;49.63;21.65;;;3.10;99.90;;;;;;4975025;28;20537;-78
2024/01/27 03:11:37;;;;;;;47.45;20.70;;;3.00;99.90;;;;;;4972219;28;20049;-78
2024/01/27 03:14:04;;;;;;;49.97;21.17;;;3.00;99.90;;;;;;4972384;28;20057;-78
2024/01/27 03:16:31;;;;;;;43.67;21.70;;;3.00;99.90;;;;;;4988915;28;20046;-77
2024/01/27 03:18:58;;;;;;;45.58;23.60;;;3.00;99.90;;;;;;4988582;28;20046;-77
2024/01/27 03:21:25;;;;;;;51.70;24.15;;;3.00;99.90;;;;;;4974384;28;20045;-77
2024/01/27 03:23:52;;;;;;;48.20;22.50;;;3.00;99.90;;;;;;4970312;28;20132;-77
2024/01/27 03:26:19;;;;;;;52.83;23.90;;;2.90;99.90;;;;;;4992578;28;20037;-77
2024/01/27 03:28:45;;;;;;;41.08;21.70;;;2.90;99.90;;;;;;4975569;28;20049;-77
2024/01/27 03:31:12;;;;;;;59.42;23.42;;;3.00;99.90;;;;;;4969675;28;20104;-77
2024/01/27 03:33:39;;;;;;;48.75;26.08;;;2.90;99.90;;;;;;4975990;28;20103;-77
2024/01/27 03:36:11;;;;;;;44.95;23.00;;;2.90;99.90;;;;;;4976901;28;20049;-78
2024/01/27 03:38:39;;;;;;;60.60;23.85;;;2.90;99.90;;;;;;4990699;28;20177;-77
2024/01/27 03:41:06;;;;;;;46.50;23.30;;;2.90;99.90;;;;;;4965612;28;20109;-77
2024/01/27 03:43:36;;;;;;;58.72;22.17;;;2.90;99.90;;;;;;4993161;28;20040;-77
2024/01/27 03:46:03;;;;;;;60.78;25.83;;;2.90;99.90;;;;;;4987694;28;20961;-77
2024/01/27 03:48:30;;;;;;;48.47;23.95;;;2.80;99.90;;;;;;4979450;28;20681;-77
2024/01/27 03:50:57;;;;;;;53.78;23.70;;;2.80;99.90;;;;;;5004861;28;21208;-77
2024/01/27 03:53:24;;;;;;;49.03;26.00;;;2.80;99.90;;;;;;5010054;28;20574;-77
2024/01/27 03:55:50;;;;;;;59.75;24.40;;;2.70;99.90;;;;;;4990736;28;20587;-77
2024/01/27 03:58:17;;;;;;;56.05;24.65;;;2.70;99.90;;;;;;4992831;28;20238;-77
2024/01/27 04:00:44;;;;;;;53.90;24.38;;;2.60;99.90;;;;;;5013972;28;20045;-77
2024/01/27 04:03:12;;;;;;;48.22;23.25;;;2.60;99.90;;;;;;5010530;28;20480;-77
2024/01/27 04:05:38;;;;;;;48.13;22.85;;;2.60;99.90;;;;;;4993038;28;20529;-77
2024/01/27 04:08:06;;;;;;;43.05;24.27;;;2.60;99.90;;;;;;4993819;28;20515;-78
2024/01/27 04:10:34;;;;;;;54.92;25.52;;;2.60;99.90;;;;;;4996798;28;20046;-77
2024/01/27 04:13:01;;;;;;;53.42;22.80;;;2.60;99.90;;;;;;4991218;28;20042;-77
2024/01/27 04:15:28;;;;;;;56.88;26.20;;;2.60;99.90;;;;;;4992270;28;20113;-77
2024/01/27 04:17:55;;;;;;;49.65;24.27;;;2.60;99.90;;;;;;5009767;28;20053;-77
2024/01/27 04:20:22;;;;;;;54.92;25.17;;;2.60;99.90;;;;;;4996788;28;20041;-77
2024/01/27 04:22:49;;;;;;;49.20;24.67;;;2.60;99.90;;;;;;5015177;28;20092;-78
2024/01/27 04:25:16;;;;;;;49.13;25.30;;;2.60;99.90;;;;;;4990187;28;20049;-78
2024/01/27 04:27:43;;;;;;;55.42;25.25;;;2.60;99.90;;;;;;5007226;28;20593;-78
2024/01/27 04:30:12;;;;;;;56.70;25.63;;;2.60;99.90;;;;;;4987617;28;20049;-77
2024/01/27 04:32:39;;;;;;;51.35;27.52;;;2.50;99.90;;;;;;4993649;28;20045;-77
2024/01/27 04:35:10;;;;;;;53.65;28.42;;;2.50;99.90;;;;;;4990129;28;20311;-77
2024/01/27 04:37:37;;;;;;;53.58;29.40;;;2.40;99.90;;;;;;5016029;28;20715;-78
2024/01/27 04:40:07;;;;;;;59.00;29.25;;;2.40;99.90;;;;;;4993907;28;20041;-78
2024/01/27 04:42:35;;;;;;;62.45;29.33;;;2.40;99.90;;;;;;5012337;28;20037;-77
2024/01/27 04:45:02;;;;;;;49.45;27.95;;;2.30;99.90;;;;;;5002004;28;20599;-78
2024/01/27 04:47:29;;;;;;;63.22;31.08;;;2.30;99.90;;;;;;4997270;28;20069;-78
2024/01/27 04:49:57;;;;;;;58.92;31.65;;;2.30;99.90;;;;;;5012303;28;20041;-77
2024/01/27 04:52:24;;;;;;;61.28;30.67;;;2.30;99.90;;;;;;5010313;28;20037;-78
2024/01/27 04:54:50;;;;;;;65.63;32.35;;;2.30;99.90;;;;;;5010335;28;20060;-77
2024/01/27 04:57:17;;;;;;;83.43;33.88;;;2.30;99.90;;;;;;5007110;28;20073;-77
2024/01/27 04:59:44;;;;;;;71.55;34.08;;;2.30;99.90;;;;;;5015942;28;20115;-77
2024/01/27 05:02:11;;;;;;;70.90;34.78;;;2.30;99.90;;;;;;5008663;28;20052;-77
2024/01/27 05:04:38;;;;;;;60.53;31.65;;;2.20;99.90;;;;;;4977974;28;20045;-77
2024/01/27 05:07:06;;;;;;;63.78;33.20;;;2.20;99.90;;;;;;5009492;28;20050;-77
2024/01/27 05:09:35;;;;;;;61.20;33.90;;;2.20;99.90;;;;;;5015519;28;21247;-77
2024/01/27 05:12:02;;;;;;;65.07;36.55;;;2.10;99.90;;;;;;4993717;28;20540;-77
2024/01/27 05:14:29;;;;;;;57.70;33.28;;;2.10;99.90;;;;;;4993992;28;20592;-76
2024/01/27 05:16:56;;;;;;;70.28;33.42;;;2.00;99.90;;;;;;5008599;28;20069;-77
2024/01/27 05:19:23;;;;;;;59.72;33.70;;;2.00;99.90;;;;;;4996651;28;20099;-77
2024/01/27 05:21:50;;;;;;;56.55;34.42;;;2.00;99.90;;;;;;4995842;28;20108;-77
2024/01/27 05:24:16;;;;;;;60.13;33.78;;;2.00;99.90;;;;;;5009097;28;20064;-77
2024/01/27 05:26:43;;;;;;;73.55;34.25;;;2.00;99.90;;;;;;4995775;28;20162;-77
2024/01/27 05:29:10;;;;;;;59.67;31.85;;;2.00;99.90;;;;;;4994471;28;20046;-77
2024/01/27 05:31:37;;;;;;;55.20;31.98;;;2.10;99.90;;;;;;4996439;28;20049;-77
2024/01/27 05:34:04;;;;;;;59.45;31.50;;;2.10;99.90;;;;;;4973211;28;20033;-76
2024/01/27 05:36:31;;;;;;;63.92;33.00;;;2.10;99.90;;;;;;4991017;28;20152;-76
2024/01/27 05:38:58;;;;;;;67.72;32.78;;;2.10;99.90;;;;;;4992192;28;20209;-77
2024/01/27 05:41:30;;;;;;;57.47;30.17;;;2.20;99.90;;;;;;5009470;28;20045;-76
2024/01/27 05:43:57;;;;;;;61.85;28.98;;;2.20;99.90;;;;;;5007012;28;20045;-76
2024/01/27 05:46:25;;;;;;;57.28;31.50;;;2.20;99.90;;;;;;4999006;28;20148;-76
2024/01/27 05:48:53;;;;;;;57.80;29.60;;;2.20;99.90;;;;;;4994221;28;20041;-77
2024/01/27 05:51:22;;;;;;;52.40;28.08;;;2.20;99.90;;;;;;4994121;28;20055;-76
2024/01/27 05:53:49;;;;;;;57.63;31.58;;;2.20;99.90;;;;;;5008538;23;20609;-81
2024/01/27 05:56:25;;;;;;;68.63;29.58;;;2.20;99.90;;;;;;4982679;28;20698;-80
2024/01/27 05:58:52;;;;;;;52.42;28.80;;;2.30;99.90;;;;;;4970651;28;20050;-81
2024/01/27 06:01:19;;;;;;;66.45;31.20;;;2.10;99.90;;;;;;4969394;28;20043;-79
2024/01/27 06:03:46;;;;;;;54.35;30.77;;;2.10;99.90;;;;;;4970654;28;20053;-80
2024/01/27 06:06:13;;;;;;;56.55;30.45;;;2.10;99.90;;;;;;4968542;28;20128;-81
2024/01/27 06:08:41;;;;;;;64.97;33.45;;;2.00;99.90;;;;;;4989761;28;20054;-79
2024/01/27 06:11:08;;;;;;;57.28;32.40;;;2.10;99.90;;;;;;4982335;28;20046;-80
2024/01/27 06:13:40;;;;;;;77.38;33.72;;;2.00;99.90;;;;;;4965220;28;21757;-80
2024/01/27 06:16:11;;;;;;;59.55;35.70;;;2.00;99.90;;;;;;4966021;28;20045;-80
2024/01/27 06:18:38;;;;;;;61.53;35.70;;;1.90;99.90;;;;;;4972336;28;20066;-80
2024/01/27 06:21:05;;;;;;;56.25;33.45;;;1.80;99.90;;;;;;4974523;28;20044;-80
2024/01/27 06:23:33;;;;;;;55.78;34.78;;;1.80;99.90;;;;;;4954754;28;20050;-81
2024/01/27 06:26:06;;;;;;;59.38;36.53;;;1.70;99.90;;;;;;4968461;28;20049;-81
2024/01/27 06:28:34;;;;;;;61.67;37.78;;;1.70;99.90;;;;;;4971252;28;20054;-80
2024/01/27 06:31:03;;;;;;;65.63;39.38;;;1.60;99.90;;;;;;4969032;28;20050;-80
2024/01/27 06:33:31;;;;;;;70.75;39.45;;;1.60;99.90;;;;;;4954026;28;20058;-81
2024/01/27 06:35:58;;;;;;;76.95;42.10;;;1.60;99.90;;;;;;4984018;28;20125;-80
2024/01/27 06:38:26;;;;;;;71.97;41.85;;;1.60;99.90;;;;;;4989283;28;20038;-80
2024/01/27 06:40:53;;;;;;;65.13;44.38;;;1.60;99.90;;;;;;4973448;28;20461;-80
2024/01/27 06:43:20;;;;;;;73.40;41.42;;;1.50;99.90;;;;;;4953125;28;20057;-79
2024/01/27 06:45:47;;;;;;;66.25;38.10;;;1.50;99.90;;;;;;4955721;28;20065;-80
2024/01/27 06:48:14;;;;;;;81.32;43.13;;;1.60;99.90;;;;;;4977009;28;20117;-81
2024/01/27 06:50:40;;;;;;;66.45;38.63;;;1.60;99.90;;;;;;4977145;28;20052;-79
2024/01/27 06:53:07;;;;;;;63.00;35.03;;;1.60;99.90;;;;;;4972475;28;20057;-80
2024/01/27 06:55:34;;;;;;;65.82;36.63;;;1.70;99.90;;;;;;4956875;28;20125;-80
2024/01/27 06:58:01;;;;;;;64.32;36.75;;;1.70;99.90;;;;;;4974588;28;20053;-80
2024/01/27 07:00:28;;;;;;;54.20;34.53;;;1.70;99.90;;;;;;4974980;28;20042;-80
2024/01/27 07:02:58;;;;;;;77.80;38.13;;;1.70;99.90;;;;;;4975852;28;20108;-80
2024/01/27 07:05:25;;;;;;;63.30;31.92;;;1.80;99.90;;;;;;4989047;28;20387;-80
2024/01/27 07:07:52;;;;;;;58.58;30.90;;;1.80;99.90;;;;;;4978535;28;20043;-80
2024/01/27 07:10:19;;;;;;;51.10;29.70;;;1.90;99.90;;;;;;4973876;28;20038;-81
2024/01/27 07:12:46;;;;;;;60.97;32.00;;;2.00;99.90;;;;;;4976526;28;20094;-81
2024/01/27 07:15:12;;;;;;;62.28;27.83;;;2.00;99.90;;;;;;4955067;28;20034;-81
2024/01/27 07:17:39;;;;;;;47.80;26.48;;;2.00;99.90;;;;;;4971390;28;20157;-82
2024/01/27 07:20:08;;;;;;;45.60;25.83;;;2.00;99.90;;;;;;4993404;28;20045;-82
2024/01/27 07:22:34;;;;;;;51.95;24.90;;;2.10;99.90;;;;;;4959823;28;20042;-81
2024/01/27 07:25:01;;;;;;;50.42;26.92;;;2.10;99.90;;;;;;4975064;28;20061;-81
2024/01/27 07:27:28;;;;;;;55.28;26.23;;;2.10;99.90;;;;;;4976037;28;20065;-82
2024/01/27 07:29:54;;;;;;;64.15;28.23;;;2.10;99.90;;;;;;4961376;28;20042;-82
2024/01/27 07:32:22;;;;;;;53.38;26.50;;;2.10;99.90;;;;;;4960111;28;20057;-82
2024/01/27 07:34:48;;;;;;;61.00;28.42;;;2.10;99.90;;;;;;4979181;28;20698;-82
2024/01/27 07:37:15;;;;;;;53.47;28.77;;;2.20;99.90;;;;;;4976407;28;20093;-81
2024/01/27 07:39:44;;;;;;;74.97;28.30;;;2.30;99.90;;;;;;4993986;28;20046;-81
2024/01/27 07:42:11;;;;;;;63.08;29.95;;;2.30;99.90;;;;;;4977909;28;20045;-82
2024/01/27 07:44:38;;;;;;;53.15;26.25;;;2.30;99.90;;;;;;4988250;28;20098;-82
2024/01/27 07:47:04;;;;;;;48.63;24.95;;;2.20;99.90;;;;;;4978312;28;20048;-82
2024/01/27 07:49:31;;;;;;;62.53;26.27;;;2.20;99.90;;;;;;4957596;28;20545;-81
2024/01/27 07:51:58;;;;;;;56.45;29.67;;;2.30;99.90;;;;;;4957983;28;20129;-72
2024/01/27 07:54:25;;;;;;;49.60;26.85;;;2.30;99.90;;;;;;4963877;28;20070;-74
2024/01/27 07:56:52;;;;;;;57.35;28.02;;;2.30;99.90;;;;;;4971454;28;20050;-75
2024/01/27 07:59:19;;;;;;;47.35;26.17;;;2.30;99.90;;;;;;4969600;28;20056;-74
2024/01/27 08:01:46;;;;;;;48.10;26.83;;;2.40;99.90;;;;;;4967173;28;20148;-75
2024/01/27 08:04:13;;;;;;;38.67;24.83;;;2.40;99.90;;;;;;4953848;28;20048;-76
2024/01/27 08:06:48;;;;;;;43.85;24.08;;;2.40;99.90;;;;;;4966635;28;20049;-74
2024/01/27 08:09:16;;;;;;;44.63;23.85;;;2.40;99.90;;;;;;4969613;28;20094;-74
2024/01/27 08:11:43;;;;;;;49.13;25.48;;;2.40;99.90;;;;;;4968012;28;20050;-75
2024/01/27 08:14:10;;;;;;;52.25;27.13;;;2.40;99.90;;;;;;4985764;28;20057;-75
2024/01/27 08:16:37;;;;;;;51.97;26.80;;;2.40;99.90;;;;;;4964417;28;22237;-74
2024/01/27 08:19:04;;;;;;;51.30;29.17;;;2.50;99.90;;;;;;4986972;28;20049;-75
2024/01/27 08:21:31;;;;;;;50.55;26.30;;;2.50;99.90;;;;;;4968016;28;20085;-75
2024/01/27 08:23:58;;;;;;;52.50;22.38;;;2.60;99.90;;;;;;4986560;28;20042;-76
2024/01/27 08:26:24;;;;;;;43.58;22.45;;;2.60;99.90;;;;;;4982625;28;20052;-74
2024/01/27 08:28:51;;;;;;;40.20;22.70;;;2.70;99.90;;;;;;4972464;28;20034;-76
2024/01/27 08:31:18;;;;;;;46.40;22.85;;;2.70;99.90;;;;;;4970882;28;20054;-73
2024/01/27 08:33:45;;;;;;;43.42;21.00;;;2.80;99.90;;;;;;4964767;28;20061;-74
2024/01/27 08:36:15;;;;;;;43.38;23.50;;;2.90;99.90;;;;;;4949710;28;20073;-75
2024/01/27 08:38:42;;;;;;;41.20;21.13;;;3.00;99.90;;;;;;4967379;28;20046;-75
2024/01/27 08:41:09;;;;;;;36.88;21.52;;;3.20;99.90;;;;;;4955279;28;20042;-74
2024/01/27 08:43:36;;;;;;;39.30;23.30;;;3.40;99.90;;;;;;4965631;28;20041;-76
2024/01/27 08:46:03;;;;;;;33.95;22.30;;;3.60;99.90;;;;;;4978916;28;20045;-74
2024/01/27 08:48:30;;;;;;;42.65;23.20;;;3.80;99.90;;;;;;4953578;28;20501;-76
2024/01/27 08:50:57;;;;;;;31.05;24.58;;;3.90;99.90;;;;;;4989718;28;20054;-74
2024/01/27 08:53:23;;;;;;;38.50;27.65;;;4.00;99.90;;;;;;4967035;28;20041;-74
2024/01/27 08:55:50;;;;;;;40.58;25.98;;;4.20;99.90;;;;;;4967690;28;20054;-75
2024/01/27 08:58:17;;;;;;;35.80;25.85;;;4.40;99.90;;;;;;4989376;28;20074;-74
2024/01/27 09:00:43;;;;;;;35.22;24.13;;;4.60;99.90;;;;;;4985551;28;20053;-75
2024/01/27 09:03:12;;;;;;;42.83;24.90;;;4.70;99.90;;;;;;4983965;28;20060;-76
2024/01/27 09:05:40;;;;;;;33.90;24.08;;;4.80;99.90;;;;;;4965788;28;20049;-76
2024/01/27 09:08:07;;;;;;;26.85;24.27;;;4.90;99.90;;;;;;4983065;28;20033;-75
2024/01/27 09:10:34;;;;;;;44.22;28.58;;;5.20;99.90;;;;;;4986266;28;20053;-75
2024/01/27 09:13:01;;;;;;;38.20;25.20;;;5.30;99.90;;;;;;4972095;28;20052;-75
2024/01/27 09:15:28;;;;;;;33.60;26.67;;;5.40;99.90;;;;;;4971985;28;20053;-74
2024/01/27 09:17:55;;;;;;;44.83;25.67;;;5.60;99.90;;;;;;4988874;28;20564;-76
2024/01/27 09:20:22;;;;;;;30.50;27.20;;;5.70;99.90;;;;;;4965560;28;20406;-75
2024/01/27 09:22:50;;;;;;;35.30;26.70;;;5.70;99.90;;;;;;4952191;28;20524;-75
2024/01/27 09:25:17;;;;;;;32.53;27.05;;;5.90;99.90;;;;;;4982165;28;20090;-76
2024/01/27 09:27:44;;;;;;;30.35;25.70;;;5.90;99.90;;;;;;4985841;28;20042;-74
2024/01/27 09:30:11;;;;;;;38.22;26.75;;;6.00;99.90;;;;;;4983570;28;20049;-75
2024/01/27 09:32:39;;;;;;;32.22;26.23;;;5.90;99.90;;;;;;4987381;28;20048;-75
2024/01/27 09:35:06;;;;;;;28.95;25.90;;;5.90;99.90;;;;;;4988474;28;20137;-75
2024/01/27 09:37:33;;;;;;;35.10;27.27;;;5.90;99.90;;;;;;4980900;28;20120;-74
2024/01/27 09:40:02;;;;;;;31.13;25.48;;;6.00;99.90;;;;;;4955398;28;20050;-73
2024/01/27 09:42:33;;;;;;;37.88;27.77;;;6.00;99.90;;;;;;4966205;28;20128;-74
2024/01/27 09:45:02;;;;;;;37.08;27.02;;;5.90;99.90;;;;;;4979119;28;20553;-73
2024/01/27 09:47:29;;;;;;;39.65;27.63;;;6.00;99.90;;;;;;4981612;28;20593;-73
2024/01/27 09:49:57;;;;;;;40.47;25.77;;;6.10;99.90;;;;;;4985824;28;20068;-74
2024/01/27 09:52:24;;;;;;;29.75;25.67;;;6.20;99.90;;;;;;4956371;28;20048;-74
2024/01/27 09:54:51;;;;;;;30.27;26.70;;;6.30;99.90;;;;;;4974429;28;20062;-76
2024/01/27 09:57:20;;;;;;;35.92;27.98;;;6.30;99.90;;;;;;4976359;28;20100;-76
2024/01/27 09:59:49;;;;;;;45.42;33.63;;;6.40;99.90;;;;;;4955454;28;20046;-75
2024/01/27 10:02:17;;;;;;;43.80;31.70;;;6.60;99.90;;;;;;4943508;28;20034;-76
2024/01/27 10:04:45;;;;;;;33.42;28.15;;;6.80;99.90;;;;;;4976643;28;20058;-74
2024/01/27 10:07:12;;;;;;;39.45;32.50;;;6.90;99.90;;;;;;4987517;28;20045;-77
2024/01/27 10:09:40;;;;;;;32.33;27.52;;;6.90;99.90;;;;;;4967424;28;20139;-74
2024/01/27 10:12:09;;;;;;;33.15;27.33;;;6.80;99.90;;;;;;4980325;28;20073;-75
2024/01/27 10:14:44;;;;;;;30.08;27.02;;;6.70;99.90;;;;;;4962073;28;20050;-78
2024/01/27 10:17:11;;;;;;;32.70;25.15;;;6.60;99.90;;;;;;4970698;28;20041;-77
2024/01/27 10:19:38;;;;;;;35.92;31.92;;;6.70;99.90;;;;;;4994551;28;20050;-78
2024/01/27 10:22:11;;;;;;;33.50;30.35;;;6.70;99.90;;;;;;4957256;28;20042;-76
2024/01/27 10:24:38;;;;;;;35.20;31.48;;;6.80;99.90;;;;;;4973489;28;20052;-78
2024/01/27 10:27:05;;;;;;;31.45;28.73;;;6.80;99.90;;;;;;4990881;28;20061;-78
2024/01/27 10:29:32;;;;;;;34.70;27.73;;;6.70;99.90;;;;;;4990158;28;20817;-78
2024/01/27 10:32:10;;;;;;;30.00;26.67;;;6.70;99.90;;;;;;4994730;28;20096;-75
2024/01/27 10:34:36;;;;;;;37.05;29.98;;;6.80;99.90;;;;;;4965789;28;20046;-75
2024/01/27 10:37:04;;;;;;;40.08;29.63;;;6.90;99.90;;;;;;4990764;28;20030;-75
2024/01/27 10:39:30;;;;;;;45.13;36.20;;;7.00;99.90;;;;;;4976247;28;20046;-74
2024/01/27 10:42:02;;;;;;;39.55;30.60;;;7.20;99.90;;;;;;4985516;28;20054;-76
2024/01/27 10:44:29;;;;;;;37.70;29.40;;;7.10;99.90;;;;;;4963179;28;20144;-76
2024/01/27 10:47:01;;;;;;;32.63;26.85;;;7.10;99.90;;;;;;4952621;28;20057;-77
2024/01/27 10:49:31;;;;;;;36.38;28.75;;;7.20;99.90;;;;;;4957187;28;20050;-74
2024/01/27 10:52:01;;;;;;;31.73;28.58;;;7.10;99.90;;;;;;4974182;28;20054;-76
2024/01/27 10:54:28;;;;;;;31.88;23.85;;;7.10;99.90;;;;;;4971292;28;20132;-76
2024/01/27 10:56:57;;;;;;;32.85;29.42;;;7.10;99.90;;;;;;4988295;28;20529;-77
2024/01/27 10:59:26;;;;;;;35.80;31.98;;;7.10;99.90;;;;;;4972152;28;20039;-75
2024/01/27 11:01:54;;;;;;;33.00;29.75;;;7.10;99.90;;;;;;4970453;28;20042;-77
2024/01/27 11:04:22;;;;;;;42.03;31.67;;;7.20;99.90;;;;;;4971226;28;20156;-74
2024/01/27 11:06:50;;;;;;;36.78;31.98;;;7.20;99.90;;;;;;4972430;28;20104;-75
2024/01/27 11:09:18;;;;;;;35.90;32.45;;;7.40;99.90;;;;;;4972515;28;20107;-77
2024/01/27 11:11:47;;;;;;;38.05;30.77;;;7.50;99.90;;;;;;4965243;28;20149;-77
2024/01/27 11:14:13;;;;;;;34.33;30.35;;;7.60;99.90;;;;;;4963194;28;20042;-77
2024/01/27 11:16:45;;;;;;;31.85;28.83;;;7.60;99.90;;;;;;4988753;28;20050;-77
2024/01/27 11:19:12;;;;;;;35.97;32.42;;;7.60;99.90;;;;;;4973949;28;20693;-77
2024/01/27 11:21:39;;;;;;;35.25;32.10;;;7.50;99.90;;;;;;4989809;28;20049;-78
2024/01/27 11:24:18;;;;;;;38.20;34.03;;;7.40;99.90;;;;;;4991669;28;20041;-75
2024/01/27 11:26:45;;;;;;;36.63;33.05;;;7.40;99.90;;;;;;4988562;28;20038;-75
2024/01/27 11:29:21;;;;;;;38.13;34.20;;;7.40;99.90;;;;;;4971384;28;20042;-75
2024/01/27 11:31:48;;;;;;;37.50;31.88;;;7.40;99.90;;;;;;4970632;28;20226;-77
2024/01/27 11:34:19;;;;;;;37.00;28.70;;;7.40;99.90;;;;;;4972896;28;20046;-77
2024/01/27 11:36:47;;;;;;;34.22;29.27;;;7.40;99.90;;;;;;4966302;28;20046;-78
2024/01/27 11:39:28;;;;;;;32.13;28.75;;;7.60;99.90;;;;;;4970541;28;20046;-78
2024/01/27 11:42:10;;;;;;;31.13;28.13;;;7.60;99.90;;;;;;4967234;28;20739;-76
2024/01/27 11:44:40;;;;;;;35.72;30.20;;;7.60;99.90;;;;;;4977863;28;20070;-76
2024/01/27 11:47:27;;;;;;;40.88;31.67;;;7.70;99.90;;;;;;4988072;28;20169;-75
2024/01/27 11:49:56;;;;;;;48.97;33.17;;;7.90;99.90;;;;;;4987094;28;20045;-76
2024/01/27 11:52:25;;;;;;;37.70;31.40;;;8.00;99.90;;;;;;4965947;28;20046;-76
2024/01/27 11:54:59;;;;;;;41.53;32.25;;;8.00;99.90;;;;;;4950371;28;20561;-77
2024/01/27 11:57:27;;;;;;;39.70;30.30;;;7.90;99.90;;;;;;4989865;28;20133;-77
2024/01/27 11:59:55;;;;;;;39.03;32.33;;;8.00;99.90;;;;;;4967724;28;20077;-77
2024/01/27 12:02:22;;;;;;;44.80;31.23;;;7.90;99.90;;;;;;4972484;28;20066;-79
2024/01/27 12:04:49;;;;;;;33.75;30.50;;;8.00;99.90;;;;;;4980413;28;20198;-83
2024/01/27 12:07:20;;;;;;;40.75;28.55;;;7.90;99.90;;;;;;4983000;28;20040;-80
2024/01/27 12:09:50;;;;;;;32.72;29.38;;;7.80;99.90;;;;;;4974921;28;20068;-77
2024/01/27 12:12:17;;;;;;;33.38;30.00;;;7.70;99.90;;;;;;4972046;28;20064;-78
2024/01/27 12:14:46;;;;;;;31.33;28.70;;;7.70;99.90;;;;;;4958679;28;21916;-82
2024/01/27 12:17:13;;;;;;;41.40;32.25;;;7.80;99.90;;;;;;4950466;28;20441;-81
2024/01/27 12:19:47;;;;;;;36.78;32.13;;;7.60;99.90;;;;;;4956957;28;20652;-81
2024/01/27 12:22:23;;;;;;;34.05;30.73;;;7.70;99.90;;;;;;4978966;28;20149;-77
2024/01/27 12:24:50;;;;;;;34.47;31.20;;;7.70;99.90;;;;;;4968104;28;20785;-77
2024/01/27 12:27:17;;;;;;;33.78;30.38;;;7.70;99.90;;;;;;4964263;28;20050;-77
2024/01/27 12:29:45;;;;;;;31.60;28.95;;;7.70;99.90;;;;;;4988097;28;20139;-77
2024/01/27 12:32:12;;;;;;;31.80;28.67;;;7.90;99.90;;;;;;4991009;28;20041;-77
2024/01/27 12:34:40;;;;;;;31.40;28.30;;;7.80;99.90;;;;;;4966015;28;20074;-76
2024/01/27 12:37:10;;;;;;;41.28;27.77;;;7.70;99.90;;;;;;4969357;28;20034;-77
2024/01/27 12:39:38;;;;;;;43.63;31.60;;;7.90;99.90;;;;;;4987890;28;20595;-74
2024/01/27 12:42:05;;;;;;;35.25;28.50;;;7.90;99.90;;;;;;4953888;28;20120;-75